createdAt,value
2023-02-12T00:01:20.415Z,3.90
2023-02-12T00:03:47.672Z,3.90
2023-02-12T00:06:16.157Z,3.90
2023-02-12T00:08:43.777Z,3.90
2023-02-12T00:11:16.084Z,3.90
2023-02-12T00:13:43.654Z,3.90
2023-02-12T00:16:16.554Z,3.90
2023-02-12T00:18:45.067Z,3.90
2023-02-12T00:21:14.133Z,3.90
2023-02-12T00:23:41.717Z,3.90
2023-02-12T00:26:11.653Z,3.90
2023-02-12T00:28:43.247Z,3.90
2023-02-12T00:31:18.193Z,3.90
2023-02-12T00:33:45.968Z,3.90
2023-02-12T00:36:19.717Z,3.90
2023-02-12T00:38:47.198Z,3.90
2023-02-12T00:41:14.349Z,3.90
2023-02-12T00:43:41.892Z,3.90
2023-02-12T00:46:09.220Z,3.90
2023-02-12T00:48:37.461Z,3.90
2023-02-12T00:51:05.672Z,3.90
2023-02-12T00:53:33.563Z,3.80
2023-02-12T00:56:01.322Z,3.90
2023-02-12T00:58:28.810Z,3.90
2023-02-12T01:00:56.099Z,3.90
2023-02-12T01:03:24.182Z,3.90
2023-02-12T01:05:53.435Z,3.90
2023-02-12T01:08:21.507Z,3.80
2023-02-12T01:10:56.865Z,3.90
2023-02-12T01:13:25.620Z,3.80
2023-02-12T01:16:23.012Z,3.80
2023-02-12T01:18:54.436Z,3.90
2023-02-12T01:21:26.709Z,3.80
2023-02-12T01:23:55.609Z,3.90
2023-02-12T01:26:23.450Z,3.90
2023-02-12T01:28:56.478Z,3.90
2023-02-12T01:31:26.201Z,3.80
2023-02-12T01:33:55.386Z,3.90
2023-02-12T01:36:23.303Z,3.90
2023-02-12T01:38:51.125Z,3.90
2023-02-12T01:41:21.843Z,4.00
2023-02-12T01:44:09.980Z,4.00
2023-02-12T01:46:37.451Z,4.00
2023-02-12T01:49:08.699Z,3.90
2023-02-12T01:51:36.546Z,4.00
2023-02-12T01:54:07.891Z,3.90
2023-02-12T01:56:35.516Z,4.00
2023-02-12T01:59:03.388Z,4.00
2023-02-12T02:01:33.757Z,4.00
2023-02-12T02:04:10.264Z,4.00
2023-02-12T02:06:48.897Z,4.00
2023-02-12T02:09:17.436Z,4.00
2023-02-12T02:12:03.283Z,4.00
2023-02-12T02:14:33.233Z,4.00
2023-02-12T02:17:31.009Z,4.00
2023-02-12T02:20:03.828Z,4.00
2023-02-12T02:22:58.289Z,4.10
2023-02-12T02:25:38.989Z,4.10
2023-02-12T02:28:37.262Z,4.10
2023-02-12T02:31:35.966Z,4.10
2023-02-12T02:34:12.416Z,4.10
2023-02-12T02:37:01.433Z,4.10
2023-02-12T02:39:43.864Z,4.10
2023-02-12T02:42:17.071Z,4.10
2023-02-12T02:44:55.735Z,4.10
2023-02-12T02:47:31.899Z,4.10
2023-02-12T02:50:06.140Z,4.10
2023-02-12T02:52:45.526Z,4.10
2023-02-12T02:55:15.727Z,4.10
2023-02-12T02:57:50.281Z,4.10
2023-02-12T03:00:35.955Z,4.20
2023-02-12T03:03:10.373Z,4.20
2023-02-12T03:05:44.944Z,4.20
2023-02-12T03:08:28.411Z,4.20
2023-02-12T03:11:01.456Z,4.20
2023-02-12T03:13:46.519Z,4.30
2023-02-12T03:16:40.456Z,4.30
2023-02-12T03:19:24.703Z,4.30
2023-02-12T03:22:09.382Z,4.40
2023-02-12T03:24:41.561Z,4.30
2023-02-12T03:27:17.755Z,4.40
2023-02-12T03:29:45.142Z,4.40
2023-02-12T03:32:15.398Z,4.30
2023-02-12T03:34:59.328Z,4.30
2023-02-12T03:37:40.769Z,4.30
2023-02-12T03:40:28.391Z,4.30
2023-02-12T03:43:07.480Z,4.30
2023-02-12T03:45:40.411Z,4.40
2023-02-12T03:48:34.327Z,4.30
2023-02-12T03:51:05.649Z,4.40
2023-02-12T03:53:34.065Z,4.40
2023-02-12T03:56:16.081Z,4.40
2023-02-12T03:58:45.269Z,4.40
2023-02-12T04:01:14.175Z,4.40
2023-02-12T04:03:42.369Z,4.30
2023-02-12T04:06:23.003Z,4.40
2023-02-12T04:08:50.394Z,4.40
2023-02-12T04:11:47.197Z,4.40
2023-02-12T04:14:35.379Z,4.40
2023-02-12T04:17:09.567Z,4.40
2023-02-12T04:20:02.762Z,4.40
2023-02-12T04:23:03.897Z,4.40
2023-02-12T04:26:02.518Z,4.40
2023-02-12T04:28:35.883Z,4.40
2023-02-12T04:31:16.605Z,4.40
2023-02-12T04:34:17.601Z,4.40
2023-02-12T04:36:57.350Z,4.50
2023-02-12T04:39:29.422Z,4.50
2023-02-12T04:42:00.910Z,4.50
2023-02-12T04:44:31.982Z,4.50
2023-02-12T04:46:59.433Z,4.40
2023-02-12T04:49:27.766Z,4.40
2023-02-12T04:51:55.135Z,4.40
2023-02-12T04:54:23.606Z,4.40
2023-02-12T04:56:50.985Z,4.40
2023-02-12T04:59:18.149Z,4.40
2023-02-12T05:01:45.666Z,4.30
2023-02-12T05:04:15.565Z,4.30
2023-02-12T05:06:43.639Z,4.30
2023-02-12T05:09:14.521Z,4.30
2023-02-12T05:11:41.762Z,4.20
2023-02-12T05:14:09.083Z,4.20
2023-02-12T05:16:36.268Z,4.20
2023-02-12T05:19:03.549Z,4.10
2023-02-12T05:21:30.806Z,4.10
2023-02-12T05:23:57.917Z,4.10
2023-02-12T05:26:25.093Z,4.10
2023-02-12T05:28:52.493Z,4.10
2023-02-12T05:31:21.641Z,4.10
2023-02-12T05:33:49.609Z,4.10
2023-02-12T05:36:22.189Z,4.10
2023-02-12T05:38:50.211Z,4.10
2023-02-12T05:41:23.174Z,4.10
2023-02-12T05:43:51.093Z,4.10
2023-02-12T05:46:19.613Z,4.10
2023-02-12T05:48:47.772Z,4.00
2023-02-12T05:51:22.223Z,4.00
2023-02-12T05:53:51.682Z,4.00
2023-02-12T05:56:24.174Z,3.90
2023-02-12T05:58:57.457Z,4.00
2023-02-12T06:01:28.123Z,3.90
2023-02-12T06:03:55.921Z,3.90
2023-02-12T06:06:24.925Z,3.90
2023-02-12T06:08:52.104Z,3.80
2023-02-12T06:11:20.959Z,3.80
2023-02-12T06:13:48.767Z,3.70
2023-02-12T06:16:27.563Z,3.70
2023-02-12T06:18:56.435Z,3.70
2023-02-12T06:21:25.349Z,3.60
2023-02-12T06:23:53.440Z,3.60
2023-02-12T06:26:21.504Z,3.60
2023-02-12T06:28:49.338Z,3.60
2023-02-12T06:31:22.734Z,3.60
2023-02-12T06:33:50.446Z,3.60
2023-02-12T06:36:18.663Z,3.60
2023-02-12T06:38:46.108Z,3.60
2023-02-12T06:41:13.246Z,3.70
2023-02-12T06:43:40.781Z,3.70
2023-02-12T06:46:08.555Z,3.60
2023-02-12T06:48:35.886Z,3.70
2023-02-12T06:51:12.534Z,3.80
2023-02-12T06:53:40.484Z,4.40
2023-02-12T06:56:13.348Z,4.80
2023-02-12T06:58:42.991Z,4.90
2023-02-12T07:01:18.147Z,5.00
2023-02-12T07:03:49.807Z,5.20
2023-02-12T07:06:17.524Z,5.30
2023-02-12T07:08:45.015Z,5.60
2023-02-12T07:11:12.729Z,5.90
2023-02-12T07:13:41.994Z,6.10
2023-02-12T07:16:11.759Z,6.40
2023-02-12T07:18:39.922Z,6.80
2023-02-12T07:21:08.337Z,7.10
2023-02-12T07:23:36.407Z,7.20
2023-02-12T07:26:06.762Z,7.10
2023-02-12T07:28:34.842Z,6.70
2023-02-12T07:31:17.189Z,6.00
2023-02-12T07:33:44.656Z,5.40
2023-02-12T07:36:15.110Z,4.80
2023-02-12T07:38:42.572Z,4.70
2023-02-12T07:41:15.017Z,4.60
2023-02-12T07:43:44.001Z,4.60
2023-02-12T07:46:19.873Z,4.60
2023-02-12T07:48:48.647Z,4.40
2023-02-12T07:51:19.389Z,4.40
2023-02-12T07:53:47.178Z,4.30
2023-02-12T07:56:20.117Z,4.10
2023-02-12T07:58:49.075Z,4.00
2023-02-12T08:01:27.055Z,3.90
2023-02-12T08:03:55.532Z,3.90
2023-02-12T08:06:25.042Z,4.00
2023-02-12T08:08:54.110Z,3.90
2023-02-12T08:11:22.001Z,3.80
2023-02-12T08:13:49.700Z,3.70
2023-02-12T08:16:20.124Z,3.80
2023-02-12T08:18:47.989Z,3.80
2023-02-12T08:21:20.821Z,3.80
2023-02-12T08:23:51.986Z,3.90
2023-02-12T08:26:25.764Z,3.90
2023-02-12T08:28:55.961Z,3.90
2023-02-12T08:31:25.782Z,3.80
2023-02-12T08:33:54.386Z,3.80
2023-02-12T08:36:39.846Z,3.80
2023-02-12T08:39:07.988Z,4.00
2023-02-12T08:41:35.704Z,4.10
2023-02-12T08:44:04.859Z,4.20
2023-02-12T08:46:34.648Z,4.30
2023-02-12T08:49:04.529Z,4.20
2023-02-12T08:51:34.239Z,4.10
2023-02-12T08:54:03.302Z,4.10
2023-02-12T08:56:32.071Z,4.10
2023-02-12T08:59:02.077Z,4.10
2023-02-12T09:01:34.289Z,4.00
2023-02-12T09:04:02.076Z,4.00
2023-02-12T09:06:29.522Z,4.10
2023-02-12T09:08:56.723Z,4.00
2023-02-12T09:11:32.276Z,4.00
2023-02-12T09:14:01.667Z,4.00
2023-02-12T09:16:31.819Z,3.90
2023-02-12T09:18:59.047Z,3.90
2023-02-12T09:21:27.068Z,3.90
2023-02-12T09:23:54.605Z,3.90
2023-02-12T09:26:26.065Z,3.90
2023-02-12T09:28:54.127Z,3.80
2023-02-12T09:31:27.831Z,3.60
2023-02-12T09:33:59.630Z,3.50
2023-02-12T09:36:27.282Z,3.50
2023-02-12T09:38:54.423Z,3.50
2023-02-12T09:42:10.172Z,3.50
2023-02-12T09:44:49.585Z,3.50
2023-02-12T09:47:19.609Z,3.60
2023-02-12T09:50:17.987Z,3.60
2023-02-12T09:52:45.421Z,3.70
2023-02-12T09:55:16.879Z,3.60
2023-02-12T09:57:44.978Z,3.50
2023-02-12T10:00:28.856Z,3.60
2023-02-12T10:02:56.333Z,3.90
2023-02-12T10:05:35.077Z,4.00
2023-02-12T10:08:24.610Z,4.20
2023-02-12T10:10:54.284Z,4.40
2023-02-12T10:13:42.934Z,4.30
2023-02-12T10:16:37.260Z,4.40
2023-02-12T10:19:42.282Z,4.60
2023-02-12T10:22:34.432Z,4.60
2023-02-12T10:25:15.718Z,4.70
2023-02-12T10:27:51.268Z,4.70
2023-02-12T10:30:24.598Z,5.10
2023-02-12T10:32:56.488Z,5.70
2023-02-12T10:35:25.096Z,5.90
2023-02-12T10:38:04.995Z,5.70
2023-02-12T10:40:34.155Z,5.50
2023-02-12T10:43:02.977Z,5.40
2023-02-12T10:45:36.305Z,5.00
2023-02-12T10:48:20.691Z,4.80
2023-02-12T10:51:09.910Z,5.00
2023-02-12T10:53:39.744Z,4.80
2023-02-12T10:56:14.993Z,5.00
2023-02-12T10:58:53.044Z,5.20
2023-02-12T11:01:36.921Z,5.30
2023-02-12T11:04:29.994Z,5.30
2023-02-12T11:07:11.830Z,5.50
2023-02-12T11:09:45.631Z,5.90
2023-02-12T11:12:41.004Z,6.00
2023-02-12T11:15:33.398Z,6.20
2023-02-12T11:18:05.961Z,6.10
2023-02-12T11:20:41.436Z,5.90
2023-02-12T11:23:26.051Z,6.20
2023-02-12T11:26:00.606Z,6.30
2023-02-12T11:28:29.164Z,6.00
2023-02-12T11:31:04.440Z,6.10
2023-02-12T11:33:34.866Z,6.10
2023-02-12T11:36:07.054Z,6.10
2023-02-12T11:38:38.069Z,6.30
2023-02-12T11:41:37.967Z,6.30
2023-02-12T11:44:26.576Z,6.00
2023-02-12T11:47:02.303Z,5.70
2023-02-12T11:49:33.370Z,6.00
2023-02-12T11:52:03.036Z,6.40
2023-02-12T11:54:35.012Z,5.90
2023-02-12T11:57:02.929Z,6.00
2023-02-12T11:59:37.539Z,6.00
2023-02-12T12:02:23.537Z,5.70
2023-02-12T12:04:54.529Z,5.70
2023-02-12T12:07:28.901Z,5.70
2023-02-12T12:10:07.590Z,5.80
2023-02-12T12:12:46.262Z,6.00
2023-02-12T12:15:45.501Z,6.10
2023-02-12T12:18:55.553Z,6.20
2023-02-12T12:21:43.737Z,5.90
2023-02-12T12:24:31.468Z,5.90
2023-02-12T12:27:24.843Z,5.60
2023-02-12T12:30:06.886Z,5.60
2023-02-12T12:32:38.216Z,5.60
2023-02-12T12:35:19.924Z,5.40
2023-02-12T12:38:26.328Z,5.30
2023-02-12T12:41:19.311Z,5.20
2023-02-12T12:43:56.458Z,5.30
2023-02-12T12:46:48.463Z,5.30
2023-02-12T12:49:51.315Z,5.50
2023-02-12T12:52:55.542Z,5.70
2023-02-12T12:56:00.413Z,5.80
2023-02-12T12:59:18.534Z,5.60
2023-02-12T13:02:04.318Z,5.40
2023-02-12T13:04:43.563Z,5.40
2023-02-12T13:07:32.820Z,5.30
2023-02-12T13:10:29.559Z,5.40
2023-02-12T13:13:27.830Z,5.60
2023-02-12T13:16:00.677Z,5.70
2023-02-12T13:18:42.782Z,5.60
2023-02-12T13:21:16.269Z,5.70
2023-02-12T13:23:50.794Z,5.70
2023-02-12T13:26:52.924Z,5.60
2023-02-12T13:29:57.070Z,5.60
2023-02-12T13:32:36.556Z,5.40
2023-02-12T13:35:07.306Z,5.40
2023-02-12T13:37:41.318Z,5.40
2023-02-12T13:40:18.861Z,5.40
2023-02-12T13:42:56.708Z,5.60
2023-02-12T13:45:52.078Z,5.60
2023-02-12T13:48:38.403Z,5.70
2023-02-12T13:51:39.801Z,5.70
2023-02-12T13:54:07.052Z,5.70
2023-02-12T13:56:45.615Z,5.70
2023-02-12T13:59:34.243Z,5.70
2023-02-12T14:02:25.372Z,5.70
2023-02-12T14:04:59.954Z,5.60
2023-02-12T14:07:48.020Z,5.50
2023-02-12T14:10:30.127Z,5.40
2023-02-12T14:13:11.312Z,5.40
2023-02-12T14:15:44.910Z,5.40
2023-02-12T14:18:24.545Z,5.50
2023-02-12T14:21:12.755Z,5.50
2023-02-12T14:23:42.297Z,5.50
2023-02-12T14:26:17.837Z,5.50
2023-02-12T14:28:51.438Z,5.40
2023-02-12T14:31:18.797Z,5.40
2023-02-12T14:34:04.736Z,5.40
2023-02-12T14:36:32.201Z,5.40
2023-02-12T14:39:06.207Z,5.40
2023-02-12T14:41:38.782Z,5.40
2023-02-12T14:44:17.873Z,5.30
2023-02-12T14:46:52.831Z,5.40
2023-02-12T14:49:42.993Z,5.40
2023-02-12T14:52:12.958Z,5.30
2023-02-12T14:54:59.198Z,5.30
2023-02-12T14:57:29.240Z,5.30
2023-02-12T15:00:02.140Z,5.30
2023-02-12T15:02:34.374Z,5.30
2023-02-12T15:05:18.787Z,5.20
2023-02-12T15:07:52.026Z,5.10
2023-02-12T15:10:23.144Z,5.10
2023-02-12T15:13:08.653Z,5.10
2023-02-12T15:15:44.285Z,5.00
2023-02-12T15:18:41.750Z,5.00
2023-02-12T15:21:29.313Z,4.80
2023-02-12T15:24:10.993Z,4.80
2023-02-12T15:26:51.206Z,4.70
2023-02-12T15:29:29.830Z,4.60
2023-02-12T15:32:02.739Z,4.50
2023-02-12T15:34:33.434Z,4.50
2023-02-12T15:37:02.837Z,4.30
2023-02-12T15:39:43.464Z,4.30
2023-02-12T15:42:39.385Z,4.20
2023-02-12T15:45:15.516Z,4.10
2023-02-12T15:47:54.968Z,4.00
2023-02-12T15:50:22.742Z,4.00
2023-02-12T15:52:52.373Z,3.90
2023-02-12T15:55:25.228Z,3.80
2023-02-12T15:57:58.185Z,3.80
2023-02-12T16:00:30.459Z,3.70
2023-02-12T16:02:57.779Z,3.70
2023-02-12T16:05:25.829Z,3.60
2023-02-12T16:07:53.370Z,3.60
2023-02-12T16:10:21.855Z,3.50
2023-02-12T16:12:50.548Z,3.40
2023-02-12T16:15:30.926Z,3.40
2023-02-12T16:17:59.979Z,3.30
2023-02-12T16:20:29.098Z,3.30
2023-02-12T16:22:56.463Z,3.20
2023-02-12T16:25:33.110Z,3.20
2023-02-12T16:28:14.965Z,3.20
2023-02-12T16:30:44.330Z,3.10
2023-02-12T16:33:34.384Z,3.00
2023-02-12T16:36:03.579Z,3.00
2023-02-12T16:38:47.520Z,2.90
2023-02-12T16:41:20.818Z,2.90
2023-02-12T16:43:51.052Z,2.90
2023-02-12T16:46:19.313Z,2.90
2023-02-12T16:48:51.838Z,2.80
2023-02-12T16:51:27.538Z,2.80
2023-02-12T16:53:57.805Z,2.80
2023-02-12T16:56:27.997Z,2.70
2023-02-12T16:58:58.764Z,2.70
2023-02-12T17:01:33.513Z,2.70
2023-02-12T17:04:04.231Z,2.70
2023-02-12T17:06:32.013Z,2.70
2023-02-12T17:08:59.516Z,2.60
2023-02-12T17:11:28.425Z,2.60
2023-02-12T17:13:56.932Z,2.60
2023-02-12T17:16:30.811Z,2.70
2023-02-12T17:18:59.525Z,2.70
2023-02-12T17:21:32.109Z,2.70
2023-02-12T17:23:59.388Z,2.70
2023-02-12T17:26:26.746Z,2.70
2023-02-12T17:28:53.929Z,2.70
2023-02-12T17:31:21.267Z,2.70
2023-02-12T17:33:48.862Z,2.60
2023-02-12T17:36:16.180Z,2.60
2023-02-12T17:38:43.285Z,2.60
2023-02-12T17:41:11.414Z,2.50
2023-02-12T17:43:38.608Z,2.50
2023-02-12T17:46:11.253Z,2.50
2023-02-12T17:48:38.484Z,2.50
2023-02-12T17:51:06.227Z,2.50
2023-02-12T17:53:33.324Z,2.50
2023-02-12T17:56:00.617Z,2.50
2023-02-12T17:58:27.836Z,2.40
2023-02-12T18:00:56.128Z,2.40
2023-02-12T18:03:23.432Z,2.40
2023-02-12T18:05:50.590Z,2.30
2023-02-12T18:08:17.785Z,2.20
2023-02-12T18:10:45.815Z,2.20
2023-02-12T18:13:14.082Z,2.10
2023-02-12T18:15:41.690Z,2.10
2023-02-12T18:18:09.099Z,2.10
2023-02-12T18:20:36.370Z,2.00
2023-02-12T18:23:04.628Z,2.00
2023-02-12T18:25:31.679Z,2.00
2023-02-12T18:28:01.360Z,2.00
2023-02-12T18:30:29.029Z,2.00
2023-02-12T18:32:56.146Z,2.00
2023-02-12T18:35:23.620Z,2.00
2023-02-12T18:37:50.929Z,2.00
2023-02-12T18:40:18.003Z,2.00
2023-02-12T18:42:45.243Z,2.00
2023-02-12T18:45:12.471Z,2.10
2023-02-12T18:47:39.561Z,2.10
2023-02-12T18:50:07.237Z,2.10
2023-02-12T18:52:34.754Z,2.10
2023-02-12T18:55:01.795Z,2.10
2023-02-12T18:57:29.772Z,2.10
2023-02-12T18:59:56.917Z,2.10
2023-02-12T19:02:24.046Z,2.20
2023-02-12T19:04:51.255Z,2.20
2023-02-12T19:07:18.320Z,2.20
2023-02-12T19:09:45.384Z,2.20
2023-02-12T19:12:12.503Z,2.20
2023-02-12T19:14:39.670Z,2.20
2023-02-12T19:17:06.675Z,2.20
2023-02-12T19:19:33.845Z,2.20
2023-02-12T19:22:01.152Z,2.20
2023-02-12T19:24:40.891Z,2.20
2023-02-12T19:27:11.738Z,2.20
2023-02-12T19:29:39.000Z,2.30
2023-02-12T19:32:06.052Z,2.30
2023-02-12T19:34:33.258Z,2.30
2023-02-12T19:37:00.444Z,2.30
2023-02-12T19:39:27.844Z,2.40
2023-02-12T19:41:56.252Z,2.40
2023-02-12T19:44:24.967Z,2.40
2023-02-12T19:46:53.247Z,2.30
2023-02-12T19:49:26.092Z,2.20
2023-02-12T19:51:53.629Z,2.10
2023-02-12T19:54:22.891Z,2.00
2023-02-12T19:56:51.416Z,2.00
2023-02-12T19:59:21.471Z,2.00
2023-02-12T20:01:49.133Z,2.00
2023-02-12T20:04:19.485Z,2.00
2023-02-12T20:06:49.126Z,2.00
2023-02-12T20:09:17.231Z,2.10
2023-02-12T20:11:44.224Z,2.20
2023-02-12T20:14:13.652Z,2.20
2023-02-12T20:16:43.753Z,2.20
2023-02-12T20:19:12.277Z,2.20
2023-02-12T20:21:39.931Z,2.20
2023-02-12T20:24:07.506Z,2.20
2023-02-12T20:26:35.532Z,2.20
2023-02-12T20:29:05.114Z,2.30
2023-02-12T20:31:36.046Z,2.30
2023-02-12T20:34:10.999Z,2.30
2023-02-12T20:36:40.221Z,2.30
2023-02-12T20:39:09.553Z,2.30
2023-02-12T20:41:37.268Z,2.20
2023-02-12T20:44:11.197Z,2.20
2023-02-12T20:46:42.662Z,2.20
2023-02-12T20:49:13.411Z,2.10
2023-02-12T20:51:40.848Z,2.00
2023-02-12T20:54:08.057Z,1.90
2023-02-12T20:56:36.219Z,1.90
2023-02-12T20:59:05.114Z,1.90
2023-02-12T21:01:38.062Z,1.90
2023-02-12T21:04:11.428Z,1.80
2023-02-12T21:06:42.138Z,1.80
2023-02-12T21:09:11.292Z,1.80
2023-02-12T21:11:40.423Z,1.80
2023-02-12T21:14:21.262Z,1.80
2023-02-12T21:16:50.123Z,1.90
2023-02-12T21:19:18.145Z,1.80
2023-02-12T21:21:45.721Z,1.80
2023-02-12T21:24:19.705Z,1.80
2023-02-12T21:26:47.002Z,1.80
2023-02-12T21:29:14.112Z,1.90
2023-02-12T21:31:43.903Z,1.90
2023-02-12T21:34:18.379Z,1.80
2023-02-12T21:36:46.983Z,1.80
2023-02-12T21:39:24.259Z,1.90
2023-02-12T21:41:56.620Z,1.90
2023-02-12T21:44:24.932Z,1.90
2023-02-12T21:46:52.540Z,1.90
2023-02-12T21:49:27.841Z,1.90
2023-02-12T21:52:02.181Z,1.80
2023-02-12T21:54:30.446Z,1.80
2023-02-12T21:56:57.946Z,1.90
2023-02-12T21:59:25.504Z,2.00
2023-02-12T22:01:55.488Z,1.90
2023-02-12T22:04:22.920Z,2.00
2023-02-12T22:06:52.621Z,2.00
2023-02-12T22:09:22.472Z,2.10
2023-02-12T22:11:52.286Z,2.00
2023-02-12T22:14:20.468Z,2.00
2023-02-12T22:16:48.118Z,1.90
2023-02-12T22:19:15.444Z,1.90
2023-02-12T22:21:44.698Z,1.90
2023-02-12T22:24:15.374Z,2.00
2023-02-12T22:26:43.010Z,2.00
2023-02-12T22:29:13.447Z,2.00
2023-02-12T22:31:42.196Z,2.00
2023-02-12T22:34:17.671Z,2.00
2023-02-12T22:36:45.627Z,2.00
2023-02-12T22:39:14.313Z,2.10
2023-02-12T22:41:44.638Z,2.10
2023-02-12T22:44:13.010Z,2.10
2023-02-12T22:46:40.958Z,2.10
2023-02-12T22:49:08.086Z,2.20
2023-02-12T22:51:36.989Z,2.20
2023-02-12T22:54:04.268Z,2.20
2023-02-12T22:56:31.252Z,2.20
2023-02-12T22:59:01.352Z,2.10
2023-02-12T23:01:29.559Z,2.20
2023-02-12T23:03:57.031Z,2.20
2023-02-12T23:06:27.829Z,2.10
2023-02-12T23:08:59.029Z,2.10
2023-02-12T23:11:28.344Z,2.20
2023-02-12T23:13:55.705Z,2.20
2023-02-12T23:16:23.467Z,2.20
2023-02-12T23:18:57.731Z,2.20
2023-02-12T23:21:27.155Z,2.20
2023-02-12T23:23:54.606Z,2.20
2023-02-12T23:26:22.104Z,2.20
2023-02-12T23:28:49.317Z,2.10
2023-02-12T23:31:16.622Z,2.10
2023-02-12T23:33:43.840Z,2.10
2023-02-12T23:36:10.963Z,2.00
2023-02-12T23:38:37.966Z,2.00
2023-02-12T23:41:05.430Z,1.90
2023-02-12T23:43:34.997Z,2.00
2023-02-12T23:46:02.038Z,2.00
2023-02-12T23:48:29.197Z,2.00
2023-02-12T23:50:56.608Z,2.00
2023-02-12T23:53:23.917Z,2.00
2023-02-12T23:55:51.426Z,2.00
2023-02-12T23:58:19.169Z,2.00
